Strona główna
METAR-TAF:

METAR-TAF

Lotnisko :

Port lotniczy Pieszczany

Pieszczany, Słowacja

Szerokość geograficzna: 48-37-30N, Długość geograficzna: 017-49-43E, wysokość: 163 m

Aktualna obserwacja pogody

Raport powstał 31 minut temu, godzina 09:30 UTC
Wiatr 3 kt z kierunków zmiennych
Temperatura 29°C
Wilgotność 40%
Ciśnienie 1019 hPa
Widzialność 10 km lub więcej
Mało chmury na wysokości 4800 ft

METAR: LZPP 180930Z VRB03KT 9999 FEW048 29/14 Q1019

czas: 12:01 (10:01 UTC)

Prognoza

Raport powstał 2 godziny i 1 minut temu, godzina 08:00 UTC
Prognoza ważna od 18 godzina 09 UTC do 18 godzina 18 UTC
Wiatr 2 kt z kierunków zmiennych
Widzialność 10 km lub więcej
Brak chmur poniżej 1500 m i brak chmur cumulonimbus
Stopniowe zmiany
od 18 godzina 15 UTC do 18 godzina 17 UTC
Wiatr 5 kt od północno-północny wschód

TAF: LZPP 180800Z 1809/1818 VRB02KT CAVOK BECMG 1815/1817 02005KT

Obserwacja i prognoza pogody dla ponad 4000 lotnisk (raport METAR i TAF).

Dostępne stacje oznaczono żółtymi i czerwonymi punktami na mapie.

Najedź kursorem aby zobaczyć nazwę stacji.

Kliknij aby zobaczyć obserwacje i prognozy pogody.

Aby zmienić mapę: kliknij na zielony przycisk z czarnym krzyżykiem, aby powiększyć; na zielony przycisk z myślnikiem, aby pomniejszyć; na zielone strzałki, aby przejść do map sąsiednich.


METAR-TAF: